Latest Weather Observations for Perth

IDW60901

Issued at 6:31 pm WST Thursday 5 May 2016 (issued every 10 minutes, with the page automatically refreshed every 10 minutes)

About weather observations | Map of Perth area stations | Latest observations for Perth area | Other Formats
Station Details ID: 009225 Name: PERTH METRO Lat: -31.92 Lon: 115.87 Height: 24.9 m
Data from the previous 72 hours. | See also: Recent months at Perth
Date/Time
WST
Tmp

°C
App
Tmp
°C
Dew
Point
°C
Rel
Hum
%
Delta-T

°C
Wind Press
QNH
hPa
Press
MSL
hPa
Rain
since
9 am
mm
Dir
 
Spd
km/h
Gust
km/h
Spd
kts
Gust
kts
05/06:30pm 16.8 16.3 14.8 88 1.2 SSW 11 20 6 11 1014.3 1014.2 0.0
05/06:00pm 17.3 16.8 14.8 85 1.4 SW 11 19 6 10 1014.2 1014.1 0.0
05/05:30pm 17.9 17.2 14.4 80 2.0 SW 11 19 6 10 1014.0 1013.9 0.0
05/05:00pm 18.6 18.2 14.1 75 2.6 SW 9 15 5 8 1013.9 1013.8 0.0
05/04:30pm 19.1 18.6 13.9 72 3.0 SW 9 17 5 9 1014.0 1013.9 0.0
05/04:00pm 19.9 19.3 13.4 66 3.7 WSW 9 13 5 7 1013.8 1013.7 0.0
05/03:30pm 20.4 20.5 13.8 66 3.8 SW 6 11 3 6 1013.6 1013.5 0.0
05/03:00pm 19.7 19.8 13.9 69 3.3 WSW 6 11 3 6 1013.7 1013.6 0.0
05/02:30pm 19.3 19.2 13.9 71 3.1 WSW 7 11 4 6 1013.6 1013.5 0.0
05/02:00pm 19.6 19.7 13.8 69 3.3 SW 6 9 3 5 1013.8 1013.7 0.0
05/01:30pm 20.0 20.6 13.2 65 3.9 SW 2 7 1 4 1014.1 1014.0 0.0
05/01:00pm 20.0 20.9 13.0 64 4.0 CALM 0 0 0 0 1014.4 1014.3 0.0
05/12:30pm 20.3 21.3 13.3 64 4.0 CALM 0 6 0 3 1014.8 1014.7 0.0
05/12:00pm 20.1 20.0 13.3 65 3.9 SE 6 9 3 5 1015.2 1015.1 0.0
05/11:30am 20.4 20.2 12.9 62 4.3 ESE 6 11 3 6 1015.6 1015.5 0.0
05/11:00am 20.2 19.8 12.9 63 4.1 SSE 7 13 4 7 1016.1 1016.0 0.0
05/10:30am 19.9 20.1 12.9 64 4.0 SSE 4 9 2 5 1016.3 1016.2 0.0
05/10:00am 19.1 19.6 13.9 72 3.0 NNE 4 7 2 4 1016.4 1016.3 0.0
05/09:30am 17.9 18.2 14.6 81 1.9 NNE 6 9 3 5 1016.6 1016.5 0.0
05/09:00am 16.7 16.9 14.2 85 1.4 NE 6 11 3 6 1016.6 1016.5 0.0
05/08:30am 15.6 15.9 14.5 93 0.6 N 6 9 3 5 1016.4 1016.3 0.0
05/08:00am 14.0 13.9 13.8 99 0.1 NNE 7 11 4 6 1016.3 1016.2 0.0
05/07:30am 13.0 12.5 12.8 99 0.1 N 7 9 4 5 1016.2 1016.1 0.0
05/07:00am 13.0 13.5 12.8 99 0.1 NW 2 7 1 4 1016.1 1016.0 0.0
05/06:30am 12.9 13.7 12.7 99 0.1 CALM 0 0 0 0 1015.9 1015.8 0.0
05/06:00am 12.5 12.8 12.3 99 0.1 NW 2 6 1 3 1015.6 1015.5 0.0
05/05:30am 11.7 12.1 11.4 98 0.2 CALM 0 0 0 0 1015.3 1015.2 0.0
05/05:00am 12.1 12.7 11.8 98 0.2 CALM 0 0 0 0 1015.3 1015.2 0.0
05/04:30am 12.9 13.7 12.7 99 0.1 CALM 0 0 0 0 1015.2 1015.1 0.0
05/04:00am 13.0 13.8 12.7 98 0.2 CALM 0 0 0 0 1015.1 1015.0 0.0
05/03:30am 12.8 13.6 12.5 98 0.2 CALM 0 0 0 0 1015.0 1014.9 0.0
05/03:00am 13.5 14.4 13.0 97 0.3 CALM 0 0 0 0 1015.0 1014.9 0.0
05/02:30am 14.4 15.7 14.1 98 0.2 CALM 0 0 0 0 1015.0 1014.9 0.0
05/02:00am 14.1 15.2 13.6 97 0.3 CALM 0 0 0 0 1015.1 1015.0 0.0
05/01:30am 14.9 16.3 14.4 97 0.3 CALM 0 0 0 0 1015.1 1015.0 0.0
05/01:00am 15.1 16.6 14.6 97 0.3 CALM 0 0 0 0 1015.5 1015.4 0.0
05/12:30am 16.0 17.8 15.4 96 0.3 CALM 0 0 0 0 1015.6 1015.5 0.0
05/12:00am 16.4 18.4 15.9 97 0.3 CALM 0 0 0 0 1015.7 1015.6 0.0
 
Date/Time
WST
Tmp

°C
App
Tmp
°C
Dew
Point
°C
Rel
Hum
%
Delta-T

°C
Wind Press
QNH
hPa
Press
MSL
hPa
Rain
since
9 am
mm
Dir
 
Spd
km/h
Gust
km/h
Spd
kts
Gust
kts
04/11:30pm 16.6 18.6 16.0 96 0.4 CALM 0 0 0 0 1015.7 1015.6 0.0
04/11:00pm 16.7 18.7 16.1 96 0.4 CALM 0 0 0 0 1015.7 1015.6 0.0
04/10:30pm 16.9 18.9 16.1 95 0.5 CALM 0 0 0 0 1015.8 1015.7 0.0
04/10:00pm 16.9 18.1 15.8 93 0.6 WNW 4 11 2 6 1015.8 1015.7 0.0
04/09:30pm 16.8 18.0 14.8 88 1.2 SW 2 17 1 9 1015.8 1015.7 0.0
04/09:00pm 17.0 17.7 14.5 85 1.4 SSW 4 9 2 5 1015.5 1015.4 0.0
04/08:30pm 17.4 17.6 14.1 81 1.9 SW 6 13 3 7 1015.5 1015.4 0.0
04/08:00pm 17.5 17.5 14.2 81 1.9 SW 7 9 4 5 1015.5 1015.4 0.0
04/07:30pm 17.2 17.4 14.1 82 1.8 W 6 7 3 4 1015.5 1015.4 0.0
04/07:00pm 17.0 18.0 13.3 79 2.1 CALM 0 6 0 3 1015.3 1015.2 0.0
04/06:30pm 17.9 18.5 13.0 73 2.8 W 2 7 1 4 1014.9 1014.8 0.0
04/06:00pm 18.6 18.5 13.2 71 3.1 W 6 9 3 5 1014.7 1014.6 0.0
04/05:30pm 18.7 18.2 12.7 68 3.4 SSW 7 15 4 8 1014.5 1014.4 0.0
04/05:00pm 19.4 18.7 13.1 67 3.6 SW 9 13 5 7 1014.6 1014.5 0.0
04/04:30pm 19.6 18.0 12.8 65 3.8 SW 13 20 7 11 1014.7 1014.6 0.0
04/04:00pm 20.2 19.4 12.9 63 4.1 WSW 9 20 5 11 1014.6 1014.5 0.0
04/03:30pm 21.0 19.4 12.7 59 4.7 SSW 13 20 7 11 1014.6 1014.5 0.0
04/03:00pm 21.2 20.0 12.9 59 4.7 WSW 11 17 6 9 1014.7 1014.6 0.0
04/02:30pm 21.5 19.9 12.9 58 4.9 SW 13 20 7 11 1014.7 1014.6 0.0
04/02:00pm 20.6 18.8 12.1 58 4.8 WSW 13 19 7 10 1014.9 1014.8 0.0
04/01:30pm 20.5 19.1 12.2 59 4.7 SW 11 20 6 11 1015.2 1015.1 0.0
04/01:00pm 21.1 20.0 13.0 60 4.6 SW 11 20 6 11 1015.5 1015.4 0.0
04/12:30pm 21.1 19.3 12.0 56 5.1 WSW 13 19 7 10 1015.9 1015.8 0.0
04/12:00pm 21.3 20.4 12.7 58 4.9 W 9 13 5 7 1016.4 1016.3 0.0
04/11:30am 20.6 20.1 12.8 61 4.4 WSW 7 17 4 9 1016.9 1016.8 0.0
04/11:00am 19.9 20.3 13.6 67 3.6 NE 4 9 2 5 1017.3 1017.2 0.0
04/10:30am 19.2 20.3 13.4 69 3.3 CALM 0 0 0 0 1017.6 1017.5 0.0
04/10:00am 17.6 18.6 13.1 75 2.5 CALM 0 0 0 0 1017.8 1017.7 0.0
04/09:30am 16.4 17.2 12.6 78 2.1 CALM 0 0 0 0 1018.0 1017.9 0.0
04/09:00am 15.3 14.7 12.2 82 1.7 NE 7 11 4 6 1018.1 1018.0 0.0
04/08:30am 14.5 15.2 12.2 86 1.2 CALM 0 2 0 1 1018.3 1018.2 0.0
04/08:00am 13.9 13.2 11.9 88 1.1 NE 7 11 4 6 1018.3 1018.2 0.0
04/07:30am 13.5 12.7 11.7 89 1.0 NE 7 13 4 7 1018.1 1018.0 0.0
04/07:00am 13.6 13.0 11.8 89 1.0 NE 6 9 3 5 1017.9 1017.8 0.0
04/06:30am 13.7 13.9 11.9 89 1.0 ENE 2 11 1 6 1017.8 1017.7 0.0
04/06:00am 13.7 13.2 11.9 89 1.0 NE 6 9 3 5 1017.8 1017.7 0.0
04/05:30am 13.7 13.2 12.1 90 0.9 NE 6 11 3 6 1017.7 1017.6 0.0
04/05:00am 13.5 13.0 11.9 90 0.9 NNE 6 9 3 5 1017.8 1017.7 0.0
04/04:30am 13.4 13.3 12.1 92 0.7 NE 4 7 2 4 1017.8 1017.7 0.0
04/04:00am 13.1 13.7 12.0 93 0.6 CALM 0 4 0 2 1017.8 1017.7 0.0
04/03:30am 13.0 12.5 12.1 94 0.5 NE 6 7 3 4 1018.0 1017.9 0.0
04/03:00am 12.8 12.3 12.0 95 0.4 NE 6 9 3 5 1018.3 1018.2 0.0
04/02:30am 12.5 11.8 12.0 97 0.3 NE 7 11 4 6 1018.5 1018.4 0.0
04/02:00am 11.7 12.1 11.2 97 0.3 CALM 0 0 0 0 1018.7 1018.6 0.0
04/01:30am 11.7 12.1 11.2 97 0.3 CALM 0 0 0 0 1018.9 1018.8 0.0
04/01:00am 11.8 12.2 11.3 97 0.3 CALM 0 4 0 2 1019.2 1019.1 0.0
04/12:30am 11.7 12.0 10.9 95 0.4 CALM 0 0 0 0 1019.3 1019.2 0.0
04/12:00am 12.1 12.5 11.3 95 0.4 CALM 0 0 0 0 1019.4 1019.3 0.0
 
Date/Time
WST
Tmp

°C
App
Tmp
°C
Dew
Point
°C
Rel
Hum
%
Delta-T

°C
Wind Press
QNH
hPa
Press
MSL
hPa
Rain
since
9 am
mm
Dir
 
Spd
km/h
Gust
km/h
Spd
kts
Gust
kts
03/11:30pm 12.3 12.7 11.4 94 0.5 CALM 0 0 0 0 1019.5 1019.4 0.0
03/11:00pm 12.7 13.2 11.6 93 0.6 CALM 0 0 0 0 1019.6 1019.5 0.0
03/10:30pm 13.4 14.1 12.3 93 0.6 CALM 0 0 0 0 1019.9 1019.8 0.0
03/10:00pm 13.7 14.4 12.3 91 0.8 CALM 0 0 0 0 1020.1 1020.0 0.0
03/09:30pm 14.7 15.5 12.7 88 1.1 CALM 0 0 0 0 1020.1 1020.0 0.0
03/09:00pm 16.2 16.2 13.5 84 1.5 S 6 9 3 5 1020.1 1020.0 0.0
03/08:30pm 16.5 16.3 13.6 83 1.6 S 7 11 4 6 1020.0 1019.9 0.0
03/08:00pm 16.9 16.7 13.6 81 1.9 S 7 11 4 6 1020.0 1019.9 0.0
03/07:30pm 17.4 16.9 13.9 80 2.0 SSW 9 13 5 7 1019.8 1019.7 0.0
03/07:00pm 17.5 16.9 13.6 78 2.2 SSW 9 13 5 7 1019.7 1019.6 0.0
03/06:30pm 17.9 17.5 13.0 73 2.8 SW 7 13 4 7 1019.6 1019.5 0.0
03/06:00pm 18.8 18.4 13.0 69 3.3 SSW 7 11 4 6 1019.4 1019.3 0.0
03/05:30pm 19.4 18.8 13.6 69 3.3 SW 9 13 5 7 1019.3 1019.2 0.0
03/05:00pm 20.0 20.6 13.2 65 3.9 SSW 2 9 1 5 1019.2 1019.1 0.0
03/04:30pm 20.2 21.0 12.7 62 4.2 CALM 0 0 0 0 1019.3 1019.2 0.0
03/04:00pm 20.5 21.0 12.7 61 4.4 SE 2 7 1 4 1019.4 1019.3 0.0
03/03:30pm 20.7 19.9 12.9 61 4.4 S 9 13 5 7 1019.5 1019.4 0.0
03/03:00pm 20.4 19.8 12.4 60 4.5 SSE 7 11 4 6 1019.7 1019.6 0.0
03/02:30pm 20.5 20.0 12.5 60 4.5 S 7 13 4 7 1019.8 1019.7 0.0
03/02:00pm 20.5 19.5 12.2 59 4.6 SSW 9 15 5 8 1020.0 1019.9 0.0
03/01:30pm 20.4 19.5 12.6 61 4.4 SSW 9 15 5 8 1020.1 1020.0 0.0
03/01:00pm 20.2 19.8 12.9 63 4.1 SSE 7 13 4 7 1020.4 1020.3 0.0
03/12:30pm 20.3 19.8 12.5 61 4.4 SE 7 13 4 7 1020.8 1020.7 0.0
03/12:00pm 20.1 19.3 12.8 63 4.1 SSE 9 17 5 9 1021.2 1021.1 0.0
03/11:30am 19.4 18.5 12.7 65 3.8 S 9 15 5 8 1021.8 1021.7 0.0
03/11:00am 19.1 18.1 12.4 65 3.7 SSE 9 15 5 8 1022.1 1022.0 0.0
03/10:30am 18.8 18.4 12.5 67 3.5 SE 6 9 3 5 1022.3 1022.2 0.0
03/10:00am 17.7 16.8 12.6 72 2.8 NE 9 13 5 7 1022.4 1022.3 0.0
03/09:30am 16.6 16.0 12.4 76 2.3 ENE 7 11 4 6 1022.7 1022.6 0.0
03/09:00am 15.8 15.5 12.7 82 1.7 NE 6 9 3 5 1022.5 1022.4 0.2
03/08:30am 14.6 15.2 13.0 90 0.9 ENE 2 7 1 4 1022.3 1022.2 0.2
03/08:00am 12.8 13.6 12.5 98 0.2 CALM 0 0 0 0 1022.3 1022.2 0.2
03/07:30am 10.5 10.6 10.2 98 0.2 CALM 0 0 0 0 1021.8 1021.7 0.2
03/07:00am 9.8 9.7 9.3 97 0.2 CALM 0 0 0 0 1021.6 1021.5 0.2
03/06:30am 9.9 9.8 9.3 96 0.3 CALM 0 0 0 0 1021.4 1021.3 0.2
03/06:00am 10.2 10.1 9.4 95 0.4 CALM 0 0 0 0 1021.2 1021.1 0.2
03/05:30am 10.7 10.7 9.9 95 0.4 CALM 0 0 0 0 1021.3 1021.2 0.2
03/05:00am 11.3 11.5 10.4 94 0.5 CALM 0 0 0 0 1021.0 1020.9 0.2
03/04:30am 12.1 12.4 11.0 93 0.6 CALM 0 0 0 0 1020.8 1020.7 0.2
03/04:00am 12.9 13.0 11.5 91 0.7 SSE 2 7 1 4 1020.7 1020.6 0.2
03/03:30am 13.9 13.4 12.5 91 0.8 S 7 13 4 7 1020.7 1020.6 0.2
03/03:00am 14.1 13.0 13.0 93 0.6 S 11 15 6 8 1020.7 1020.6 0.2
03/02:30am 14.1 13.5 13.6 97 0.3 SSE 9 11 5 6 1020.8 1020.7 0.2
03/02:00am 13.5 12.7 13.0 97 0.3 S 9 13 5 7 1020.9 1020.8 0.2
03/01:30am 11.9 12.3 11.1 95 0.4 CALM 0 0 0 0 1021.1 1021.0 0.2
03/01:00am 12.3 12.7 11.4 94 0.5 CALM 0 0 0 0 1021.0 1020.9 0.2
03/12:30am 12.6 13.1 11.7 94 0.5 CALM 0 0 0 0 1020.9 1020.8 0.2
03/12:00am 13.0 13.5 11.7 92 0.7 CALM 0 0 0 0 1021.0 1020.9 0.2
 
Date/Time
WST
Tmp

°C
App
Tmp
°C
Dew
Point
°C
Rel
Hum
%
Delta-T

°C
Wind Press
QNH
hPa
Press
MSL
hPa
Rain
since
9 am
mm
Dir
 
Spd
km/h
Gust
km/h
Spd
kts
Gust
kts
02/11:30pm 13.6 14.3 12.3 92 0.7 CALM 0 0 0 0 1021.0 1020.9 0.2
02/11:00pm 14.2 15.0 12.4 89 1.0 CALM 0 0 0 0 1021.0 1020.9 0.2
02/10:30pm 15.1 15.9 12.6 85 1.4 CALM 0 0 0 0 1021.1 1021.0 0.2
02/10:00pm 16.2 17.1 12.9 81 1.8 CALM 0 0 0 0 1021.1 1021.0 0.2
02/09:30pm 17.4 18.4 13.1 76 2.4 CALM 0 0 0 0 1021.0 1020.9 0.2
02/09:00pm 18.3 18.5 13.0 71 3.0 S 4 9 2 5 1021.2 1021.1 0.2
02/08:30pm 18.4 19.3 12.8 70 3.1 CALM 0 2 0 1 1021.2 1021.1 0.2
02/08:00pm 18.6 18.2 13.0 70 3.1 SSE 7 11 4 6 1021.2 1021.1 0.2
02/07:30pm 18.7 18.4 13.3 71 3.1 SW 7 11 4 6 1021.1 1021.0 0.2
02/07:00pm 18.6 18.4 13.5 72 2.9 SSW 7 13 4 7 1021.1 1021.0 0.2

Latest Capital City Observations: Canberra | Sydney | Melbourne | Brisbane | Adelaide | Perth | Hobart | Darwin

Other Formats:

Comma delimited format used in spreadsheet applications
http://www.bom.gov.au/fwo/IDW60901/IDW60901.94608.axf

JavaScript Object Notation format (JSON) in row-major order
http://www.bom.gov.au/fwo/IDW60901/IDW60901.94608.json